Time;durP1;ratioP1;P1;durP2;ratioP2;P2;SDS_P1;SDS_P2;PMS_P1;PMS_P2;Temp;Humidity;BMP_temperature;BMP_pressure;BME280_temperature;BME280_humidity;BME280_pressure;Samples;Min_cycle;Max_cycle;Signal;HPM_P1;HPM_P2
2021/12/24 00:00:39;;;;;;;44.63;20.08;;;6.60;99.90;;;;;;5097175;28;20035;-76
2021/12/24 00:03:05;;;;;;;71.93;27.23;;;6.60;99.90;;;;;;5079886;28;20431;-77
2021/12/24 00:05:32;;;;;;;55.97;23.38;;;7.10;99.90;;;;;;5096438;28;20046;-78
2021/12/24 00:07:58;;;;;;;72.20;27.33;;;6.80;99.90;;;;;;5096709;28;20047;-78
2021/12/24 00:10:24;;;;;;;57.08;23.50;;;7.00;99.90;;;;;;5079792;28;20044;-78
2021/12/24 00:12:59;;;;;;;62.63;24.63;;;;;;;;;;5096883;28;20046;-78
2021/12/24 00:18:16;;;;;;;49.97;23.60;;;;;;;;;;5095651;28;20119;-78
2021/12/24 00:37:23;;;;;;;101.25;30.92;;;;;;;;;;5093897;28;20054;-76
2021/12/24 00:40:03;;;;;;;94.68;30.10;;;7.10;99.90;;;;;;5095672;28;20043;-76
2021/12/24 00:42:29;;;;;;;92.00;30.65;;;7.10;99.90;;;;;;5096206;28;20054;-77
2021/12/24 00:44:55;;;;;;;119.90;36.30;;;7.10;99.90;;;;;;5079229;28;20043;-76
2021/12/24 00:47:21;;;;;;;81.85;29.20;;;7.10;99.90;;;;;;5095736;28;20039;-77
2021/12/24 00:49:47;;;;;;;105.95;31.55;;;7.10;99.90;;;;;;5096140;28;20048;-77
2021/12/24 00:55:03;;;;;;;70.68;28.02;;;6.80;99.90;;;;;;5094962;28;20058;-76
2021/12/24 00:57:42;;;;;;;73.05;25.85;;;7.20;99.90;;;;;;5095701;28;20075;-75
2021/12/24 01:00:28;;;;;;;55.45;21.02;;;7.30;99.90;;;;;;5095394;28;20092;-76
2021/12/24 01:02:55;;;;;;;73.07;26.42;;;8.00;99.90;;;;;;5078368;28;20050;-76
2021/12/24 01:05:23;;;;;;;71.40;26.13;;;8.30;99.90;;;;;;5095358;28;20043;-76
2021/12/24 01:07:50;;;;;;;67.07;24.67;;;7.40;99.90;;;;;;5095437;28;20122;-76
2021/12/24 01:10:19;;;;;;;80.53;24.52;;;7.40;99.90;;;;;;5095627;28;20042;-77
2021/12/24 01:12:45;;;;;;;66.70;23.90;;;7.90;99.90;;;;;;5095659;28;20549;-77
2021/12/24 01:15:13;;;;;;;55.08;21.17;;;7.40;99.90;;;;;;5095246;28;20031;-76
2021/12/24 01:18:00;;;;;;;55.72;19.75;;;7.40;99.90;;;;;;5094536;28;20555;-77
2021/12/24 01:20:37;;;;;;;44.25;17.80;;;7.40;99.90;;;;;;5095301;28;20544;-75
2021/12/24 01:26:02;;;;;;;50.97;18.03;;;7.50;99.90;;;;;;5094865;28;20043;-75
2021/12/24 01:28:48;;;;;;;45.63;17.48;;;8.40;99.90;;;;;;5079139;28;20065;-74
2021/12/24 01:44:57;;;;;;;32.45;13.02;;;7.50;99.90;;;;;;5077540;28;20048;-76
2021/12/24 01:47:23;;;;;;;29.27;12.68;;;7.20;99.90;;;;;;5090607;28;20492;-76
2021/12/24 01:49:49;;;;;;;25.80;11.77;;;7.60;99.90;;;;;;5094462;28;20047;-76
2021/12/24 01:52:16;;;;;;;29.33;12.35;;;7.40;99.90;;;;;;5128981;27;20502;-77
2021/12/24 01:54:43;;;;;;;26.02;12.77;;;7.60;99.90;;;;;;5112016;28;20043;-77
2021/12/24 01:57:10;;;;;;;28.52;13.85;;;7.40;99.90;;;;;;5094048;28;20100;-76
2021/12/24 01:59:36;;;;;;;28.05;12.40;;;7.90;99.90;;;;;;5094306;28;20508;-75
2021/12/24 02:02:02;;;;;;;25.17;13.48;;;8.30;99.90;;;;;;5094286;28;20046;-75
2021/12/24 02:04:28;;;;;;;35.05;15.50;;;7.90;99.90;;;;;;5093807;28;20043;-74
2021/12/24 02:06:54;;;;;;;28.88;14.50;;;7.80;99.90;;;;;;5094459;28;20051;-76
2021/12/24 02:09:20;;;;;;;27.52;14.13;;;7.70;99.90;;;;;;5094350;28;20393;-76
2021/12/24 02:11:45;;;;;;;32.03;14.68;;;7.80;99.90;;;;;;5093700;28;20048;-75
2021/12/24 02:14:19;;;;;;;31.48;15.23;;;7.80;99.90;;;;;;5094928;28;20047;-75
2021/12/24 02:17:19;;;;;;;31.83;13.60;;;7.70;99.90;;;;;;5093313;28;20062;-76
2021/12/24 02:30:41;;;;;;;36.67;16.40;;;8.00;99.90;;;;;;5094653;28;20489;-77
2021/12/24 02:33:07;;;;;;;46.58;18.75;;;8.60;99.90;;;;;;5078127;28;20047;-77
2021/12/24 02:35:33;;;;;;;40.38;18.15;;;8.20;99.90;;;;;;5112579;28;20040;-78
2021/12/24 02:38:00;;;;;;;40.10;17.20;;;8.10;99.90;;;;;;5078008;28;20480;-76
2021/12/24 02:40:27;;;;;;;48.88;19.48;;;8.90;99.90;;;;;;5085607;28;20032;-78
2021/12/24 02:42:55;;;;;;;43.85;19.38;;;8.00;99.90;;;;;;5091402;28;20047;-79
2021/12/24 02:45:22;;;;;;;48.60;20.67;;;8.70;99.90;;;;;;5112121;28;20388;-76
2021/12/24 02:55:38;;;;;;;68.90;25.98;;;8.20;99.90;;;;;;5067865;28;20051;-78
2021/12/24 02:58:04;;;;;;;89.97;30.80;;;8.20;99.90;;;;;;5097698;28;20404;-79
2021/12/24 03:00:30;;;;;;;72.60;27.17;;;8.20;99.90;;;;;;5081219;28;20118;-81
2021/12/24 03:02:56;;;;;;;76.95;26.75;;;8.60;99.90;;;;;;5097998;28;20036;-79
2021/12/24 03:05:24;;;;;;;62.50;23.70;;;7.90;99.90;;;;;;5098091;28;20038;-79
2021/12/24 03:07:50;;;;;;;67.80;24.33;;;8.10;99.90;;;;;;5097945;28;20047;-79
2021/12/24 03:10:18;;;;;;;75.15;25.02;;;8.10;99.90;;;;;;5097842;28;20043;-78
2021/12/24 03:12:45;;;;;;;77.45;24.95;;;;;;;;;;5081025;28;20043;-80
2021/12/24 03:15:12;;;;;;;81.32;25.50;;;;;;;;;;5098236;28;20516;-77
2021/12/24 03:17:39;;;;;;;81.28;25.88;;;;;;;;;;5097803;28;20040;-79
2021/12/24 03:20:09;;;;;;;83.72;27.08;;;;;;;;;;5097785;28;20079;-79
2021/12/24 03:22:49;;;;;;;86.68;26.98;;;;;;;;;;5080556;28;20039;-80
2021/12/24 03:25:16;;;;;;;81.15;26.40;;;;;;;;;;5081191;28;20392;-81
2021/12/24 03:27:41;;;;;;;79.78;27.40;;;8.50;99.90;;;;;;5080758;28;20047;-81
2021/12/24 03:30:08;;;;;;;81.47;26.63;;;8.30;99.90;;;;;;5097665;28;20047;-80
2021/12/24 03:32:33;;;;;;;75.45;26.25;;;8.30;99.90;;;;;;5080561;28;20087;-80
2021/12/24 03:34:59;;;;;;;74.10;27.02;;;8.70;99.90;;;;;;5097854;28;20515;-78
2021/12/24 03:37:25;;;;;;;82.20;26.02;;;8.40;99.90;;;;;;5080384;28;20127;-79
2021/12/24 03:39:51;;;;;;;98.13;31.85;;;8.30;99.90;;;;;;5097679;28;20070;-78
2021/12/24 03:42:16;;;;;;;84.25;30.65;;;8.30;99.90;;;;;;5090228;28;20036;-79
2021/12/24 03:44:49;;;;;;;81.70;28.08;;;8.10;99.90;;;;;;5111173;28;20397;-78
2021/12/24 03:47:18;;;;;;;80.32;28.95;;;9.30;99.90;;;;;;5076787;28;20124;-79
2021/12/24 03:54:56;;;;;;;68.75;26.88;;;8.20;99.90;;;;;;5097308;28;20050;-80
2021/12/24 03:57:30;;;;;;;71.65;27.88;;;8.20;99.90;;;;;;5097360;28;20066;-79
2021/12/24 03:59:57;;;;;;;71.50;26.52;;;8.20;99.90;;;;;;5093485;28;20039;-77
2021/12/24 04:02:24;;;;;;;86.57;31.25;;;8.20;99.90;;;;;;5080053;28;20040;-80
2021/12/24 04:04:50;;;;;;;74.28;28.63;;;8.20;99.90;;;;;;5096947;28;20035;-79
2021/12/24 04:07:16;;;;;;;66.55;27.05;;;8.70;99.90;;;;;;5096719;28;20131;-77
2021/12/24 04:09:49;;;;;;;86.70;32.03;;;8.50;99.90;;;;;;5096681;28;20051;-80
2021/12/24 04:12:16;;;;;;;84.32;33.35;;;10.50;99.90;;;;;;5096809;28;20039;-79
2021/12/24 04:14:42;;;;;;;76.28;30.90;;;8.80;99.90;;;;;;5097164;28;20490;-81
2021/12/24 04:17:08;;;;;;;80.05;31.83;;;8.30;99.90;;;;;;5096460;28;20126;-79
2021/12/24 04:24:52;;;;;;;67.30;29.05;;;8.50;99.90;;;;;;5096452;28;20050;-81
2021/12/24 04:27:26;;;;;;;69.25;28.25;;;8.30;99.90;;;;;;5096553;28;20101;-78
2021/12/24 04:29:58;;;;;;;66.60;27.88;;;8.50;99.90;;;;;;5092619;28;20047;-78
2021/12/24 04:32:34;;;;;;;67.15;27.20;;;8.40;99.90;;;;;;5075979;28;20039;-77
2021/12/24 04:35:15;;;;;;;68.13;28.40;;;8.30;99.90;;;;;;5093142;28;20381;-76
2021/12/24 04:51:20;;;;;;;54.92;27.20;;;8.50;99.90;;;;;;5072744;28;20048;-79
2021/12/24 05:02:32;;;;;;;50.83;24.60;;;8.60;99.90;;;;;;5092307;28;20126;-80
2021/12/24 05:05:17;;;;;;;49.08;20.77;;;8.60;99.90;;;;;;5092349;28;20047;-80
2021/12/24 05:10:12;;;;;;;42.97;21.10;;;8.60;99.90;;;;;;5092254;28;20048;-76
2021/12/24 05:12:37;;;;;;;60.53;21.90;;;8.70;99.90;;;;;;5092187;28;20488;-80
2021/12/24 05:15:07;;;;;;;43.83;19.20;;;11.70;99.90;;;;;;5075034;28;20122;-79
2021/12/24 05:18:11;;;;;;;45.13;19.35;;;8.70;99.90;;;;;;5092174;28;20044;-80
2021/12/24 05:23:03;;;;;;;43.50;20.35;;;9.40;99.90;;;;;;5071626;28;20089;-79
2021/12/24 05:25:29;;;;;;;42.17;17.60;;;9.40;99.90;;;;;;5069756;28;20036;-78
2021/12/24 05:27:57;;;;;;;37.95;15.48;;;10.40;99.90;;;;;;5073266;28;20036;-78
2021/12/24 05:30:24;;;;;;;35.90;16.25;;;8.50;99.90;;;;;;5074886;28;20075;-80
2021/12/24 05:32:50;;;;;;;43.00;16.75;;;8.70;99.90;;;;;;5119733;27;20040;-81
2021/12/24 05:35:16;;;;;;;33.13;14.20;;;8.60;99.90;;;;;;5078191;28;20054;-81
2021/12/24 05:37:41;;;;;;;35.47;14.48;;;8.60;99.90;;;;;;5095458;28;20043;-80
2021/12/24 05:40:09;;;;;;;40.05;14.98;;;9.40;99.90;;;;;;5094911;28;20044;-82
2021/12/24 05:42:34;;;;;;;26.13;12.45;;;8.60;99.90;;;;;;5095018;28;20050;-81
2021/12/24 05:45:04;;;;;;;26.58;11.30;;;8.70;99.90;;;;;;5095133;28;20040;-80
2021/12/24 05:47:30;;;;;;;30.65;11.80;;;10.00;99.90;;;;;;5095409;28;20084;-80
2021/12/24 05:49:56;;;;;;;33.97;12.38;;;10.30;99.90;;;;;;5095198;28;20044;-81
2021/12/24 05:52:22;;;;;;;30.27;11.05;;;8.90;99.90;;;;;;5095276;28;20046;-80
2021/12/24 05:54:48;;;;;;;27.90;11.13;;;8.70;99.90;;;;;;5094985;28;20507;-80
2021/12/24 05:57:14;;;;;;;34.58;13.25;;;8.60;99.90;;;;;;5094328;28;20048;-80
2021/12/24 05:59:40;;;;;;;24.20;9.98;;;8.70;99.90;;;;;;5095075;28;20046;-78
2021/12/24 06:02:06;;;;;;;29.60;10.65;;;8.60;99.90;;;;;;5111282;28;20043;-80
2021/12/24 06:04:31;;;;;;;26.50;10.38;;;8.60;99.90;;;;;;5077397;28;20039;-79
2021/12/24 06:06:58;;;;;;;27.95;11.60;;;8.80;99.90;;;;;;5094934;28;20051;-79
2021/12/24 06:09:24;;;;;;;36.50;10.63;;;8.60;99.90;;;;;;5077895;28;20096;-81
2021/12/24 06:11:50;;;;;;;36.03;11.13;;;9.00;99.90;;;;;;5078012;28;20075;-82
2021/12/24 06:14:16;;;;;;;38.17;12.32;;;9.20;99.90;;;;;;5094506;28;20086;-80
2021/12/24 06:17:00;;;;;;;24.58;9.55;;;8.70;99.90;;;;;;5094066;28;20036;-81
2021/12/24 06:19:26;;;;;;;30.27;11.93;;;8.50;99.90;;;;;;5094973;28;20108;-77
2021/12/24 06:21:56;;;;;;;32.30;12.48;;;10.60;99.90;;;;;;5094147;28;20071;-76
2021/12/24 06:24:22;;;;;;;35.00;11.07;;;9.60;99.90;;;;;;5094468;28;20039;-76
2021/12/24 06:26:49;;;;;;;29.20;10.80;;;8.60;99.90;;;;;;5094315;28;20035;-80
2021/12/24 06:29:15;;;;;;;37.85;13.02;;;9.00;99.90;;;;;;5094550;28;20066;-79
2021/12/24 06:31:41;;;;;;;25.85;12.05;;;8.60;99.90;;;;;;5078138;28;20048;-79
2021/12/24 06:34:07;;;;;;;36.65;13.18;;;8.60;99.90;;;;;;5094560;28;20518;-80
2021/12/24 06:36:40;;;;;;;28.23;11.52;;;8.60;99.90;;;;;;5094180;28;20047;-78
2021/12/24 06:39:07;;;;;;;27.88;11.98;;;8.50;99.90;;;;;;5094209;28;20039;-77
2021/12/24 06:41:33;;;;;;;28.40;11.43;;;8.50;99.90;;;;;;5093926;28;20047;-78
2021/12/24 06:44:00;;;;;;;28.27;12.15;;;8.60;99.90;;;;;;5094706;28;20036;-79
2021/12/24 06:46:26;;;;;;;24.75;10.55;;;9.40;99.90;;;;;;5094264;28;20040;-79
2021/12/24 06:48:56;;;;;;;32.22;12.35;;;9.60;99.90;;;;;;5094097;28;20472;-78
2021/12/24 06:51:26;;;;;;;30.95;12.60;;;8.90;99.90;;;;;;5112923;28;20063;-80
2021/12/24 06:53:52;;;;;;;25.63;10.20;;;8.80;99.90;;;;;;5094110;28;20031;-80
2021/12/24 06:56:18;;;;;;;28.02;10.65;;;8.50;99.90;;;;;;5077234;28;20564;-77
2021/12/24 06:58:44;;;;;;;29.75;11.20;;;8.60;99.90;;;;;;5093861;28;20123;-78
2021/12/24 07:01:10;;;;;;;26.50;10.57;;;9.30;99.90;;;;;;5094112;28;20077;-79
2021/12/24 07:03:37;;;;;;;29.67;11.48;;;8.80;99.90;;;;;;5077506;28;20392;-79
2021/12/24 07:06:04;;;;;;;30.23;10.23;;;8.40;99.90;;;;;;5093880;28;20040;-78
2021/12/24 07:08:30;;;;;;;31.30;10.60;;;;;;;;;;5094297;28;20400;-77
2021/12/24 07:10:56;;;;;;;29.00;11.05;;;8.30;99.90;;;;;;5094263;28;20392;-78
2021/12/24 07:13:21;;;;;;;21.83;9.43;;;9.70;99.90;;;;;;5075625;28;20043;-83
2021/12/24 07:15:47;;;;;;;19.58;9.20;;;8.10;99.90;;;;;;5074667;28;20389;-82
2021/12/24 07:18:13;;;;;;;20.15;7.93;;;9.70;99.90;;;;;;5060514;28;20040;-79
2021/12/24 07:20:38;;;;;;;20.13;7.97;;;8.20;99.90;;;;;;5077779;28;20062;-81
2021/12/24 07:23:04;;;;;;;24.13;8.10;;;8.20;99.90;;;;;;5094189;28;20153;-81
2021/12/24 07:25:30;;;;;;;25.88;10.52;;;8.20;99.90;;;;;;5110291;28;20091;-79
2021/12/24 07:27:56;;;;;;;22.40;8.73;;;9.10;99.90;;;;;;5080389;28;20047;-78
2021/12/24 07:30:22;;;;;;;17.63;7.57;;;8.00;99.90;;;;;;5114498;28;20122;-79
2021/12/24 07:32:48;;;;;;;19.13;7.55;;;7.90;99.90;;;;;;5080626;28;20047;-79
2021/12/24 07:35:14;;;;;;;21.27;7.63;;;8.10;99.90;;;;;;5079562;28;20062;-78
2021/12/24 07:37:41;;;;;;;22.45;8.18;;;8.30;99.90;;;;;;5097374;28;20074;-76
2021/12/24 07:40:08;;;;;;;23.67;7.38;;;8.10;99.90;;;;;;5097623;28;20400;-78
2021/12/24 07:42:34;;;;;;;18.83;6.70;;;8.20;99.90;;;;;;5095338;28;20043;-80
2021/12/24 07:45:00;;;;;;;21.67;8.13;;;8.80;99.90;;;;;;5097222;28;20036;-79
2021/12/24 07:47:31;;;;;;;19.33;7.30;;;8.60;99.90;;;;;;5080881;28;20368;-78
2021/12/24 07:50:03;;;;;;;22.40;8.23;;;8.10;99.90;;;;;;5097214;28;20239;-79
2021/12/24 07:52:30;;;;;;;24.92;8.55;;;8.10;99.90;;;;;;5097302;28;20054;-81
2021/12/24 07:54:56;;;;;;;22.90;9.50;;;7.90;99.90;;;;;;5096487;28;20054;-82
2021/12/24 07:57:22;;;;;;;20.80;7.90;;;8.00;99.90;;;;;;5096942;28;20052;-83
2021/12/24 07:59:48;;;;;;;27.10;8.63;;;8.00;99.90;;;;;;5080411;28;20123;-83
2021/12/24 08:02:16;;;;;;;25.67;9.18;;;8.00;99.90;;;;;;5080043;28;20063;-81
2021/12/24 08:04:51;;;;;;;25.52;8.82;;;8.00;99.90;;;;;;5097290;28;20377;-82
2021/12/24 08:07:29;;;;;;;;;;;8.90;99.90;;;;;;5131134;27;20050;-80
2021/12/24 08:09:54;;;;;;;24.02;9.27;;;8.00;99.90;;;;;;5096610;28;19922;-75
2021/12/24 08:12:20;;;;;;;31.05;9.77;;;10.40;99.90;;;;;;5096671;28;20040;-79
2021/12/24 08:14:46;;;;;;;23.42;8.10;;;8.80;99.90;;;;;;5080460;28;20048;-79
2021/12/24 08:17:12;;;;;;;22.80;7.93;;;9.80;99.90;;;;;;5130312;27;20434;-81
2021/12/24 08:19:38;;;;;;;22.20;7.30;;;9.70;99.90;;;;;;5096631;28;20036;-80
2021/12/24 08:22:05;;;;;;;24.20;8.13;;;8.20;99.90;;;;;;5096486;28;20044;-78
2021/12/24 08:24:31;;;;;;;14.15;6.50;;;8.10;99.90;;;;;;5113443;28;20039;-79
2021/12/24 08:26:57;;;;;;;17.13;6.03;;;8.00;99.90;;;;;;5079040;28;20044;-76
2021/12/24 08:29:23;;;;;;;17.58;6.88;;;8.20;99.90;;;;;;5096012;28;20135;-79
2021/12/24 08:31:51;;;;;;;18.55;7.32;;;8.10;99.90;;;;;;5079537;28;20126;-81
2021/12/24 08:34:18;;;;;;;20.45;7.53;;;8.10;99.90;;;;;;5096847;28;20384;-78
2021/12/24 08:36:45;;;;;;;15.60;6.50;;;8.20;99.90;;;;;;5078619;28;20044;-77
2021/12/24 08:39:11;;;;;;;19.15;7.72;;;8.40;99.90;;;;;;5094536;28;20506;-82
2021/12/24 08:41:37;;;;;;;22.27;7.93;;;7.80;99.90;;;;;;5095883;28;20039;-81
2021/12/24 08:44:03;;;;;;;27.88;7.63;;;7.90;99.90;;;;;;5096126;28;20040;-80
2021/12/24 08:46:29;;;;;;;18.85;8.73;;;8.20;99.90;;;;;;5095627;28;20107;-79
2021/12/24 08:48:55;;;;;;;22.90;8.30;;;8.10;99.90;;;;;;5094723;28;20392;-78
2021/12/24 08:51:21;;;;;;;13.68;7.45;;;8.10;99.90;;;;;;5092819;28;20028;-71
2021/12/24 08:53:48;;;;;;;15.93;6.28;;;;;;;;;;5093456;28;20054;-81
2021/12/24 08:56:14;;;;;;;10.07;5.38;;;8.10;99.90;;;;;;5077690;28;20035;-73
2021/12/24 08:58:40;;;;;;;15.93;5.25;;;9.30;99.90;;;;;;5093397;28;20183;-72
2021/12/24 09:01:06;;;;;;;19.40;6.50;;;9.40;99.90;;;;;;5078497;28;20043;-79
2021/12/24 09:03:32;;;;;;;13.20;5.55;;;9.00;99.90;;;;;;5078426;28;20066;-76
2021/12/24 09:05:58;;;;;;;12.90;5.18;;;8.10;99.90;;;;;;5075758;28;20032;-74
2021/12/24 09:08:24;;;;;;;14.25;4.40;;;8.10;99.90;;;;;;5077135;28;20213;-72
2021/12/24 09:10:49;;;;;;;9.45;4.40;;;7.80;99.90;;;;;;5093008;28;20043;-78
2021/12/24 09:13:15;;;;;;;8.45;3.88;;;10.00;99.90;;;;;;5092814;28;20048;-76
2021/12/24 09:15:41;;;;;;;8.13;4.28;;;9.90;99.90;;;;;;5077477;28;20410;-80
2021/12/24 09:18:06;;;;;;;7.70;3.75;;;8.00;99.90;;;;;;5094309;28;20476;-79
2021/12/24 09:20:38;;;;;;;7.68;3.97;;;8.00;99.90;;;;;;5077132;28;20044;-79
2021/12/24 09:23:05;;;;;;;8.35;4.20;;;8.10;99.90;;;;;;5094034;28;20044;-78
2021/12/24 09:25:31;;;;;;;9.35;4.40;;;7.90;99.90;;;;;;5093314;28;20395;-75
2021/12/24 09:27:58;;;;;;;11.60;3.30;;;8.20;99.90;;;;;;5075222;28;20048;-76
2021/12/24 09:30:25;;;;;;;7.95;2.65;;;8.10;99.90;;;;;;5093016;28;20060;-77
2021/12/24 09:32:51;;;;;;;8.77;3.08;;;8.00;99.90;;;;;;5092282;28;20043;-75
2021/12/24 09:35:17;;;;;;;7.35;2.83;;;7.80;99.90;;;;;;5091412;28;20054;-76
2021/12/24 09:37:43;;;;;;;4.28;1.65;;;7.60;99.90;;;;;;5092421;28;20075;-75
2021/12/24 09:40:11;;;;;;;4.22;1.88;;;7.40;99.90;;;;;;5092041;28;20089;-78
2021/12/24 09:42:37;;;;;;;5.00;2.30;;;7.10;99.90;;;;;;5076973;28;20066;-76
2021/12/24 09:45:25;;;;;;;4.80;2.20;;;6.80;99.90;;;;;;5094402;28;20044;-78
2021/12/24 09:47:51;;;;;;;4.75;2.40;;;7.10;99.90;;;;;;5088597;28;20044;-76
2021/12/24 09:50:21;;;;;;;5.18;2.72;;;7.00;99.90;;;;;;5077611;28;20484;-76
2021/12/24 09:52:49;;;;;;;5.78;2.42;;;6.90;99.90;;;;;;5075092;28;20430;-78
2021/12/24 09:55:21;;;;;;;6.15;3.30;;;7.20;99.90;;;;;;5080973;28;20039;-77
2021/12/24 09:57:48;;;;;;;4.70;1.80;;;6.80;99.90;;;;;;5093906;28;20051;-78
2021/12/24 10:00:17;;;;;;;5.43;2.13;;;6.90;99.90;;;;;;5060285;28;20044;-76
2021/12/24 10:02:46;;;;;;;5.40;1.95;;;6.70;99.90;;;;;;5074359;28;20119;-76
2021/12/24 10:05:28;;;;;;;6.25;2.38;;;6.60;99.90;;;;;;5089480;28;20039;-76
2021/12/24 10:08:04;;;;;;;4.00;1.70;;;6.70;99.90;;;;;;5081702;28;20066;-76
2021/12/24 10:10:31;;;;;;;4.25;1.60;;;6.80;99.90;;;;;;5077366;28;20051;-76
2021/12/24 10:13:36;;;;;;;3.88;1.77;;;6.40;99.90;;;;;;5087332;28;20059;-76
2021/12/24 10:16:17;;;;;;;4.20;1.50;;;6.40;99.90;;;;;;5072488;28;20130;-76
2021/12/24 10:18:45;;;;;;;9.52;5.65;;;6.40;99.90;;;;;;5074299;28;20040;-77
2021/12/24 10:21:22;;;;;;;16.58;7.43;;;6.60;99.90;;;;;;5084002;28;20039;-74
2021/12/24 10:24:01;;;;;;;28.42;14.52;;;6.60;99.90;;;;;;5090667;28;20044;-76
2021/12/24 10:26:45;;;;;;;31.65;15.35;;;6.30;99.90;;;;;;5060504;28;20499;-79
2021/12/24 10:29:16;;;;;;;8.80;2.83;;;8.10;99.90;;;;;;5127973;28;20074;-77
2021/12/24 10:31:49;;;;;;;39.53;17.30;;;6.60;99.90;;;;;;5076271;28;20123;-78
2021/12/24 10:34:18;;;;;;;33.95;15.25;;;6.50;99.90;;;;;;5092769;28;20036;-77
2021/12/24 10:36:50;;;;;;;8.90;5.22;;;8.20;99.90;;;;;;5074573;28;20046;-77
2021/12/24 10:39:17;;;;;;;4.80;2.50;;;6.60;99.90;;;;;;5068541;28;20389;-72
2021/12/24 10:41:45;;;;;;;6.13;2.90;;;6.50;99.90;;;;;;5079937;28;20459;-71
2021/12/24 10:44:16;;;;;;;4.32;2.38;;;7.20;99.90;;;;;;5088820;28;20050;-72
2021/12/24 10:46:57;;;;;;;7.10;2.92;;;6.50;99.90;;;;;;5074228;28;20039;-72
2021/12/24 10:52:31;;;;;;;5.50;2.75;;;6.40;99.90;;;;;;5092522;28;20047;-72
2021/12/24 10:55:08;;;;;;;5.65;2.72;;;6.40;99.90;;;;;;5092543;28;20561;-72
2021/12/24 10:57:36;;;;;;;5.38;2.63;;;6.40;99.90;;;;;;5119346;27;20035;-72
2021/12/24 11:00:07;;;;;;;5.00;2.92;;;6.00;99.90;;;;;;5093823;28;20050;-72
2021/12/24 11:02:36;;;;;;;7.53;2.78;;;6.50;99.90;;;;;;5094850;28;20047;-71
2021/12/24 11:05:03;;;;;;;6.78;3.30;;;7.00;99.90;;;;;;5094981;28;20457;-71
2021/12/24 11:07:38;;;;;;;5.43;2.97;;;6.30;99.90;;;;;;5092639;28;20113;-71
2021/12/24 11:10:22;;;;;;;8.70;3.92;;;6.30;99.90;;;;;;5094802;28;20421;-72
2021/12/24 11:12:55;;;;;;;8.25;3.50;;;6.80;99.90;;;;;;5092701;28;20116;-71
2021/12/24 11:15:23;;;;;;;6.53;3.10;;;6.50;99.90;;;;;;5096885;28;20055;-72
2021/12/24 11:17:52;;;;;;;6.90;3.30;;;6.40;99.90;;;;;;5097244;28;20570;-71
2021/12/24 11:20:18;;;;;;;11.93;5.63;;;6.50;99.90;;;;;;5080104;28;20080;-71
2021/12/24 11:23:02;;;;;;;7.35;3.80;;;8.40;99.90;;;;;;5097390;28;20429;-71
2021/12/24 11:25:31;;;;;;;6.03;3.20;;;6.40;99.90;;;;;;5077200;28;20040;-72
2021/12/24 11:27:57;;;;;;;6.20;3.45;;;6.40;99.90;;;;;;5059769;28;20146;-71
2021/12/24 11:30:26;;;;;;;7.15;3.75;;;6.10;99.90;;;;;;5076929;28;20056;-72
2021/12/24 11:32:52;;;;;;;9.23;3.78;;;6.40;99.90;;;;;;5122263;27;20507;-71
2021/12/24 11:35:18;;;;;;;6.07;3.22;;;8.50;99.90;;;;;;5095921;28;20043;-72
2021/12/24 11:37:46;;;;;;;8.00;3.53;;;6.30;99.90;;;;;;5080668;28;20035;-71
2021/12/24 11:40:14;;;;;;;8.25;3.97;;;6.30;99.90;;;;;;5097293;28;20403;-72
2021/12/24 11:42:51;;;;;;;7.43;4.40;;;6.30;99.90;;;;;;5097394;28;20128;-72
2021/12/24 11:45:20;;;;;;;7.50;4.47;;;6.40;99.90;;;;;;5097309;28;20380;-72
2021/12/24 11:47:46;;;;;;;10.68;5.00;;;6.30;99.90;;;;;;5079273;28;20507;-72
2021/12/24 11:50:11;;;;;;;7.50;3.97;;;6.40;99.90;;;;;;5096360;28;20087;-72
2021/12/24 11:52:37;;;;;;;13.18;6.18;;;6.40;99.90;;;;;;5088593;28;20051;-72
2021/12/24 11:55:04;;;;;;;26.05;12.63;;;6.40;99.90;;;;;;5093019;28;20039;-72
2021/12/24 11:57:29;;;;;;;8.30;4.90;;;6.40;99.90;;;;;;5076782;28;20051;-72
2021/12/24 11:59:55;;;;;;;9.27;5.10;;;6.40;99.90;;;;;;5093408;28;20502;-72
2021/12/24 12:02:47;;;;;;;20.55;11.38;;;6.40;99.90;;;;;;5092805;28;20032;-72
2021/12/24 12:05:45;;;;;;;13.05;5.85;;;6.40;99.90;;;;;;5076501;28;20039;-72
2021/12/24 12:08:26;;;;;;;16.55;5.82;;;6.50;99.90;;;;;;5048878;28;20056;-72
2021/12/24 12:10:57;;;;;;;11.57;6.57;;;6.40;99.90;;;;;;5093593;28;20039;-72
2021/12/24 12:13:44;;;;;;;9.88;6.10;;;6.50;99.90;;;;;;5095064;28;20039;-72
2021/12/24 12:16:15;;;;;;;10.43;5.63;;;6.50;99.90;;;;;;5093078;28;20039;-74
2021/12/24 12:18:44;;;;;;;11.55;5.75;;;6.40;99.90;;;;;;5093993;28;20083;-73
2021/12/24 12:21:15;;;;;;;8.27;4.93;;;6.50;99.90;;;;;;5094299;28;20043;-73
2021/12/24 12:26:43;;;;;;;9.90;5.32;;;6.60;99.90;;;;;;5095733;28;20050;-74
2021/12/24 12:29:19;;;;;;;9.88;4.50;;;7.00;99.90;;;;;;5128453;27;20468;-71
2021/12/24 12:31:46;;;;;;;12.18;5.13;;;6.70;99.90;;;;;;5077840;28;20047;-71
2021/12/24 12:34:37;;;;;;;9.73;4.65;;;6.50;99.90;;;;;;5096102;28;20032;-71
2021/12/24 12:37:24;;;;;;;9.70;5.05;;;6.80;99.90;;;;;;5078332;28;20036;-71
2021/12/24 12:40:12;;;;;;;8.48;4.07;;;6.80;99.90;;;;;;5095744;28;20039;-71
2021/12/24 12:42:56;;;;;;;8.48;3.63;;;6.80;99.90;;;;;;5083954;28;20040;-71
2021/12/24 12:45:38;;;;;;;6.43;3.10;;;6.80;99.90;;;;;;5078355;28;20040;-71
2021/12/24 12:48:13;;;;;;;7.05;2.85;;;6.90;99.90;;;;;;5095661;28;20103;-71
2021/12/24 12:50:50;;;;;;;5.45;2.53;;;6.80;99.90;;;;;;5078384;28;20051;-71
2021/12/24 12:53:26;;;;;;;6.22;2.47;;;6.90;99.90;;;;;;5095877;28;20050;-71
2021/12/24 12:56:16;;;;;;;8.43;2.88;;;6.90;99.90;;;;;;5095480;28;20082;-71
2021/12/24 12:58:44;;;;;;;7.68;3.33;;;7.00;99.90;;;;;;5095191;28;20036;-70
2021/12/24 13:01:20;;;;;;;6.25;2.40;;;7.10;99.90;;;;;;5095526;28;20120;-70
2021/12/24 13:03:55;;;;;;;6.00;2.50;;;7.20;99.90;;;;;;5095768;28;20039;-70
2021/12/24 13:06:25;;;;;;;4.78;2.33;;;;;;;;;;5094666;28;20122;-72
2021/12/24 13:08:52;;;;;;;6.05;2.15;;;;;;;;;;5095201;28;20047;-71
2021/12/24 13:11:23;;;;;;;4.95;2.40;;;;;;;;;;5095759;28;20046;-71
2021/12/24 13:13:59;;;;;;;5.25;2.33;;;7.30;99.90;;;;;;5093817;28;20044;-72
2021/12/24 13:16:38;;;;;;;8.02;3.20;;;7.20;99.90;;;;;;5095866;28;20048;-72
2021/12/24 13:25:14;;;;;;;6.43;1.73;;;7.40;99.90;;;;;;5094074;28;20043;-70
2021/12/24 13:27:45;;;;;;;5.70;2.53;;;7.40;99.90;;;;;;5119568;27;20054;-69
2021/12/24 13:30:25;;;;;;;3.90;1.65;;;7.50;99.90;;;;;;5095534;28;20408;-72
2021/12/24 13:32:59;;;;;;;5.88;1.50;;;7.60;99.90;;;;;;5074008;28;20051;-71
2021/12/24 13:35:40;;;;;;;5.13;1.08;;;7.40;99.90;;;;;;5108908;28;20495;-70
2021/12/24 13:38:28;;;;;;;4.57;1.05;;;7.30;99.90;;;;;;5074773;28;20051;-67
2021/12/24 13:40:55;;;;;;;3.63;1.25;;;7.20;99.90;;;;;;5075270;28;20036;-71
2021/12/24 13:43:21;;;;;;;3.00;1.00;;;7.20;99.90;;;;;;5094889;28;20491;-70
2021/12/24 13:45:50;;;;;;;3.10;0.90;;;7.30;99.90;;;;;;5094402;28;20043;-70
2021/12/24 13:48:25;;;;;;;3.78;1.30;;;7.20;99.90;;;;;;5093548;28;20040;-72
2021/12/24 13:56:25;;;;;;;3.63;1.50;;;7.10;99.90;;;;;;5094599;28;20047;-69
2021/12/24 13:58:57;;;;;;;4.78;1.60;;;8.10;99.90;;;;;;5077587;28;20046;-67
2021/12/24 14:01:25;;;;;;;3.88;1.30;;;7.10;99.90;;;;;;5093844;28;20093;-67
2021/12/24 14:03:51;;;;;;;2.97;1.10;;;7.20;99.90;;;;;;5094551;28;20047;-71
2021/12/24 14:06:17;;;;;;;3.40;1.50;;;7.00;99.90;;;;;;5077865;28;20093;-72
2021/12/24 14:08:42;;;;;;;3.80;1.33;;;7.10;99.90;;;;;;5093608;28;20035;-70
2021/12/24 14:11:15;;;;;;;4.82;0.98;;;6.90;99.90;;;;;;5094420;28;20134;-71
2021/12/24 14:13:50;;;;;;;4.60;1.00;;;7.40;99.90;;;;;;5076753;28;20399;-71
2021/12/24 14:18:53;;;;;;;4.55;1.50;;;6.90;99.90;;;;;;5093824;28;20051;-74
2021/12/24 14:24:13;;;;;;;4.10;1.15;;;7.80;99.90;;;;;;5093435;28;20840;-73
2021/12/24 14:26:41;;;;;;;4.95;1.02;;;7.00;99.90;;;;;;5082262;28;20044;-76
2021/12/24 14:29:07;;;;;;;2.55;0.90;;;7.00;99.90;;;;;;5088239;28;20062;-76
2021/12/24 14:31:49;;;;;;;3.00;0.80;;;6.80;99.90;;;;;;5094325;28;20418;-76
2021/12/24 14:34:50;;;;;;;513.13;85.30;;;6.80;99.90;;;;;;5094146;28;20050;-74
2021/12/24 14:37:32;;;;;;;360.75;60.60;;;6.70;99.90;;;;;;5099741;28;20093;-75
2021/12/24 14:40:00;;;;;;;3.45;0.80;;;6.60;99.90;;;;;;5093996;28;20035;-76
2021/12/24 14:42:29;;;;;;;4.72;1.27;;;6.90;99.90;;;;;;5077026;28;20036;-76
2021/12/24 14:45:21;;;;;;;938.92;165.00;;;7.40;99.90;;;;;;5093009;28;20458;-76
2021/12/24 14:47:55;;;;;;;249.07;37.05;;;6.40;99.90;;;;;;5100500;28;20052;-75
2021/12/24 14:50:21;;;;;;;1047.38;162.82;;;6.60;99.90;;;;;;5073071;28;20044;-74
2021/12/24 14:52:47;;;;;;;201.07;35.53;;;6.70;99.90;;;;;;5074182;28;20039;-74
2021/12/24 14:55:21;;;;;;;348.98;50.67;;;7.10;99.90;;;;;;5093470;28;20091;-73
2021/12/24 14:58:16;;;;;;;4.80;1.30;;;6.60;99.90;;;;;;5093654;28;20075;-76
2021/12/24 15:00:46;;;;;;;613.60;109.10;;;6.20;99.90;;;;;;5092410;28;20083;-77